Bookmark and Share
Track history (hours):
 

Drifting buoy 44837

Last reported at 2012-Dec-31 09:40 UTC. Time now 2014-Apr-16 16:09 UTC.
Position N 28°18' W 063°28'.
Warning: this ship's position is years out of date!

Barometer 1019.8 mb
Water temperature 23.1 ° C

NotesDate/timePositionNaut miles runAvg speedWind from/ knotsBaromVisibWave heightAir tempDewpointWater temp
2012-Dec-31 09:40N 28°18' W 063°28'0 0.0 1019.8 23.1
2012-Dec-31 07:40N 28°18' W 063°28'0 0.0 1018.9 23.1
2012-Dec-31 06:40N 28°18' W 063°28'2 1.7 1018.7 23.2
2012-Dec-31 05:40N 28°19' W 063°27'0 0.0 1018.3 23.2
2012-Dec-31 01:40N 28°19' W 063°27'0 0.2 1017.0 23.2
2012-Dec-30 23:40N 28°20' W 063°28'1 0.6 1015.9 23.2
2012-Dec-30 21:40N 28°21' W 063°28'0 0.0 1014.5 23.2
2012-Dec-30 19:40N 28°21' W 063°28'0 0.0 1014.3 23.2
2012-Dec-30 15:40N 28°21' W 063°28'0 0.1 1016.5 23.2
2012-Dec-30 12:40N 28°21' W 063°28'0 0.5 1017.4 23.2
2012-Dec-30 11:40N 28°21' W 063°28'1 0.3 1016.9 23.2
2012-Dec-30 08:40N 28°21' W 063°28'0 0.1 1016.2 23.2
2012-Dec-30 07:40N 28°21' W 063°27'0 0.0 1016.9 23.2
2012-Dec-30 06:40N 28°21' W 063°27'0 0.4 1017.3 23.2
2012-Dec-30 05:40N 28°21' W 063°28'0 0.0 1017.9 23.2
2012-Dec-30 03:40N 28°21' W 063°28'0 0.1 1019.2 23.2
2012-Dec-30 01:40N 28°21' W 063°28'0 0.2 1019.7 23.2
2012-Dec-29 23:40N 28°21' W 063°27'0 0.1 1019.7 23.3
2012-Dec-29 20:40N 28°21' W 063°27'0 0.1 1019.6 23.4
2012-Dec-29 19:40N 28°21' W 063°27'0 0.3 1019.5 23.4
2012-Dec-29 18:40N 28°21' W 063°26'0 0.4 1019.7 23.4
2012-Dec-29 17:40N 28°21' W 063°26'0 0.2 1019.6 23.4
2012-Dec-29 16:40N 28°21' W 063°26'0 0.1 1020.1 23.3
2012-Dec-29 13:40N 28°21' W 063°26'1 0.6 1022.3 23.2
2012-Dec-29 12:40N 28°21' W 063°25'0 0.0 1022.0 23.2
2012-Dec-29 09:40N 28°21' W 063°25'0 0.1 1020.3 23.2
2012-Dec-29 07:40N 28°21' W 063°25'0 0.1 1020.2 23.2
2012-Dec-29 06:40N 28°21' W 063°25'0 0.0 1020.1 23.2
2012-Dec-29 05:40N 28°21' W 063°25'0 0.2 1020.1 23.2
2012-Dec-29 04:40N 28°21' W 063°25'0 0.0 1020.6 23.2
2012-Dec-29 03:40N 28°21' W 063°25'1 0.3 1021.1 23.2
2012-Dec-29 01:40N 28°20' W 063°25'0 0.2 1021.2 23.2
2012-Dec-28 23:40N 28°20' W 063°25'0 0.1 1020.4 23.3
2012-Dec-28 22:40N 28°20' W 063°25'1 0.8 1020.2 23.5
2012-Dec-28 21:40N 28°20' W 063°24'0 0.3 1019.7 23.6
2012-Dec-28 20:40N 28°20' W 063°24'0 0.3 1019.1 23.6
2012-Dec-28 19:40N 28°20' W 063°23'0 0.2 1019.0 23.6
2012-Dec-28 17:40N 28°20' W 063°23'0 0.1 1018.8 23.6
2012-Dec-28 16:40N 28°20' W 063°23'0 0.0 1019.2 23.4
2012-Dec-28 15:40N 28°20' W 063°23'0 0.2 1019.9 23.3
2012-Dec-28 14:40N 28°20' W 063°23'0 0.3 1020.4 23.2
2012-Dec-28 13:40N 28°20' W 063°23'1 0.3 1020.0 23.2
2012-Dec-28 10:40N 28°20' W 063°22'0 0.5 1018.1 23.2
2012-Dec-28 09:40N 28°19' W 063°22'1 0.5 1017.7 23.2
2012-Dec-28 08:40N 28°20' W 063°21'0 0.1 1017.2 23.2
2012-Dec-28 06:40N 28°20' W 063°21'0 0.0 1017.6 23.2
2012-Dec-28 05:40N 28°20' W 063°21'0 0.4 1017.7 23.2
2012-Dec-28 04:40N 28°20' W 063°21'0 0.1 1017.8 23.2
2012-Dec-28 02:40N 28°20' W 063°21'0 0.5 1018.3 23.2
2012-Dec-28 01:40N 28°21' W 063°21'0 0.1 1018.2 23.2
2012-Dec-28 00:40N 28°21' W 063°21'0 0.5 1017.8 23.2
2012-Dec-27 23:40N 28°21' W 063°21'0 0.1 1018.0 23.2
2012-Dec-27 22:40N 28°21' W 063°21'0 0.1 1017.8 23.2
2012-Dec-27 19:40N 28°21' W 063°21'1 0.3 1017.6 23.2
2012-Dec-27 17:40N 28°20' W 063°21'0 0.4 1017.9 23.2
2012-Dec-27 16:40N 28°20' W 063°21'1 0.5 1018.6 23.2
2012-Dec-27 14:40N 28°19' W 063°22'0 0.0 1020.7 23.2
2012-Dec-27 13:40N 28°19' W 063°22'1 1.3 1020.8 23.1
2012-Dec-27 12:40N 28°19' W 063°21'0 0.1 1020.1 23.1
2012-Dec-27 11:40N 28°19' W 063°21'1 0.7 1020.0 23.1
2012-Dec-27 10:40N 28°18' W 063°21'1 0.6 1019.8 23.1
2012-Dec-27 08:40N 28°18' W 063°19'0 0.2 1019.2 23.2
2012-Dec-27 06:40N 28°18' W 063°19'1 0.2 1019.7 23.2
2012-Dec-27 02:40N 28°18' W 063°18'0 0.0 1021.5 23.2
2012-Dec-27 01:40N 28°18' W 063°18'1 0.6 1021.4 23.2
2012-Dec-27 00:40N 28°19' W 063°18'1 0.6 1021.2 23.2
2012-Dec-26 23:40N 28°18' W 063°18'0 0.2 1021.2 23.2
2012-Dec-26 22:40N 28°18' W 063°18'0 0.5 1021.1 23.2
2012-Dec-26 21:40N 28°18' W 063°18'0 0.1 1020.6 23.2
2012-Dec-26 19:40N 28°18' W 063°18'0 0.2 1020.4 23.2
2012-Dec-26 17:40N 28°18' W 063°18'0 0.4 1020.7 23.2
2012-Dec-26 16:40N 28°17' W 063°18'0 0.1 1021.1 23.2
2012-Dec-26 15:40N 28°17' W 063°18'0 0.2 1021.8 23.2
2012-Dec-26 14:40N 28°17' W 063°18'0 0.3 1022.2 23.1
2012-Dec-26 13:40N 28°17' W 063°17'1 0.4 1022.1 23.1
2012-Dec-26 11:40N 28°18' W 063°17'0 0.5 1021.3 23.1
2012-Dec-26 10:40N 28°17' W 063°18'1 0.3 1021.2 23.1
2012-Dec-26 08:40N 28°17' W 063°17'1 0.3 1019.5 23.1
2012-Dec-26 05:40N 28°18' W 063°16'0 0.1 1020.3 23.1
2012-Dec-26 04:40N 28°18' W 063°16'2 0.5 1020.3 23.1
2012-Dec-26 00:40N 28°20' W 063°15'1 0.5 1020.4 23.1
2012-Dec-25 23:40N 28°20' W 063°15'0 0.4 1020.2 23.1
2012-Dec-25 22:40N 28°20' W 063°15'0 0.0 1019.5 23.1
2012-Dec-25 20:40N 28°20' W 063°15'1 0.6 1019.0 23.1
2012-Dec-25 19:40N 28°21' W 063°15'0 0.2 1018.9 23.2
2012-Dec-25 18:40N 28°21' W 063°15'0 0.2 1018.7 23.1
2012-Dec-25 17:40N 28°21' W 063°15'0 0.3 1019.1 23.1
2012-Dec-25 16:40N 28°21' W 063°15'1 0.5 1020.2 23.1
2012-Dec-25 15:40N 28°20' W 063°14'0 0.0 1020.7 23.1
2012-Dec-25 14:40N 28°20' W 063°14'0 0.3 1021.4 23.1
2012-Dec-25 13:40N 28°20' W 063°14'0 0.5 1021.4 23.0
2012-Dec-25 12:40N 28°20' W 063°14'1 0.6 1020.6 23.0
2012-Dec-25 11:40N 28°20' W 063°13'0 0.0 1019.9 23.0
2012-Dec-25 10:40N 28°20' W 063°13'0 0.0 1019.4 23.0
2012-Dec-25 09:40N 28°20' W 063°13'0 0.3 1018.7 23.0
2012-Dec-25 08:40N 28°20' W 063°13'1 0.7 1018.5 23.0
2012-Dec-25 07:40N 28°20' W 063°12'0 0.0 1018.9 23.0
2012-Dec-25 06:40N 28°20' W 063°12'0 0.0 1019.7 23.0
2012-Dec-25 05:40N 28°20' W 063°12'1 1.5 1020.0 23.0
2012-Dec-25 04:40N 28°20' W 063°11'1 0.2 1020.5 23.0
2012-Dec-25 00:40N 28°20' W 063°10'2 0.4 1021.0 23.0
2012-Dec-24 20:40N 28°20' W 063°08'0 0.2 1020.9 23.1
2012-Dec-24 18:40N 28°20' W 063°09'0 0.2 1020.8 23.1
2012-Dec-24 17:40N 28°20' W 063°09'1 0.5 1021.5 23.1
2012-Dec-24 16:40N 28°20' W 063°09'1 0.3 1022.1 23.1
2012-Dec-24 14:40N 28°19' W 063°08'0 0.2 1023.6 23.1
2012-Dec-24 13:40N 28°20' W 063°08'0 0.0 1023.7 23.0
2012-Dec-24 12:40N 28°20' W 063°08'1 0.7 1023.0 23.1
2012-Dec-24 11:40N 28°19' W 063°08'1 0.5 1022.5 23.1
2012-Dec-24 10:40N 28°19' W 063°08'0 0.3 1022.1 23.0
2012-Dec-24 09:40N 28°19' W 063°07'1 0.5 1021.6 23.1
2012-Dec-24 07:40N 28°18' W 063°06'0 0.2 1021.3 23.1
2012-Dec-24 05:40N 28°18' W 063°06'1 1.2 1021.5 23.1
2012-Dec-24 04:40N 28°18' W 063°05'0 0.1 1021.6 23.1
2012-Dec-23 22:40N 28°18' W 063°05'0 0.1 1021.2 23.1
2012-Dec-23 21:40N 28°17' W 063°05'1 0.2 1020.6 23.2
2012-Dec-23 18:40N 28°18' W 063°04'1 0.5 1019.4 23.2
2012-Dec-23 16:40N 28°17' W 063°04'0 0.2 1019.2 23.2
2012-Dec-23 14:40N 28°16' W 063°04'0 0.2 1020.4 23.1
2012-Dec-23 13:40N 28°16' W 063°04'0 0.2 1020.1 23.1
2012-Dec-23 11:40N 28°16' W 063°04'0 0.2 1018.3 23.1
2012-Dec-23 10:40N 28°16' W 063°04'1 0.5 1017.4 23.1
2012-Dec-23 08:40N 28°15' W 063°04'0 0.2 1015.6 23.2
2012-Dec-23 07:40N 28°15' W 063°03'0 0.4 1015.4 23.2
2012-Dec-23 06:40N 28°15' W 063°03'0 0.2 1015.1 23.1
2012-Dec-23 05:40N 28°14' W 063°03'0 0.0 1015.1 23.2
2012-Dec-23 04:40N 28°14' W 063°03'1 0.5 1015.2 23.2
2012-Dec-23 02:40N 28°15' W 063°02'1 0.3 1014.9 23.2
2012-Dec-23 00:40N 28°15' W 063°02'1 0.6 1014.7 23.2
2012-Dec-22 23:40N 28°15' W 063°02'0 0.3 1014.4 23.2
2012-Dec-22 22:40N 28°15' W 063°02'1 0.7 1013.7 23.2
2012-Dec-22 21:40N 28°16' W 063°02'0 0.1 1012.7 23.2
2012-Dec-22 19:40N 28°16' W 063°02'0 0.4 1012.4 23.2
2012-Dec-22 18:40N 28°16' W 063°03'2 0.5 1012.5 23.2
2012-Dec-22 13:40N 28°14' W 063°04'0 0.2 1015.4 23.2
2012-Dec-22 11:40N 28°14' W 063°04'2 0.6 1014.5 23.2
2012-Dec-22 08:40N 28°12' W 063°04'0 0.4 1013.3 23.2
2012-Dec-22 07:40N 28°12' W 063°04'1 0.9 1013.4 23.2
2012-Dec-22 06:40N 28°11' W 063°03'0 0.0 1014.2 23.2
2012-Dec-22 05:40N 28°11' W 063°03'1 0.5 1014.8 23.2
2012-Dec-22 03:40N 28°11' W 063°03'1 1.0 1015.9 23.2
2012-Dec-22 02:40N 28°10' W 063°02'0 0.3 1016.5 23.2
2012-Dec-22 01:40N 28°10' W 063°02'1 0.4 1016.9 23.2
2012-Dec-21 23:40N 28°10' W 063°01'1 0.4 1016.9 23.2
2012-Dec-21 20:40N 28°11' W 063°00'0 0.1 1015.9 23.2
2012-Dec-21 16:40N 28°11' W 063°01'1 0.6 1016.3 23.2
2012-Dec-21 15:40N 28°10' W 063°01'1 0.3 1017.5 23.2
2012-Dec-21 12:40N 28°09' W 063°01'1 0.8 1017.7 23.2
2012-Dec-21 11:40N 28°08' W 063°01'1 0.5 1017.4 23.2
2012-Dec-21 10:40N 28°08' W 063°01'0 0.0 1016.6 23.2
2012-Dec-21 09:40N 28°08' W 063°01'   1016.1 23.2

Dump ship's entire track history

sailing weather and tide predictions

Buoy 44837